Flight Track Log - Related Links

Times and Time Zones

All times are in EDT time to prevent confusion due to time zone crossing. See the VRD352 flight status page for this flight to view local times or setup timezone preferences in your user account.

Time Position Orientation Groundspeed Altitude Reporting Facility
EDT Latitude Longitude Course Direction KTS MPH feet Rate Location/Type
Sun 12:55:35 PM 37.6241 -122.3690 28° Northeast 171 197 200  Level FlightAware ADS-B
Sun 12:55:50 PM 37.6349 -122.3620 27° Northeast 173 199 800 2,609 Climbing FlightAware ADS-B
Sun 12:55:58 PM 37.6400 -122.3580 32° Northeast 173 199 1,200 3,231 Climbing FlightAware ADS-B
Sun 12:56:03 PM 37.6430 -122.3540 47° Northeast 171 197 1,500 3,158 Climbing FlightAware ADS-B
Sun 12:56:17 PM 37.6508 -122.3440 45° Northeast 165 190 2,200 2,400 Climbing FlightAware ADS-B
Sun 12:56:33 PM 37.6588 -122.3340 45° Northeast 161 185 2,700 1,313 Climbing FlightAware ADS-B
Sun 12:56:49 PM 37.6677 -122.3220 47° Northeast 174 200 2,900 621 Climbing FlightAware ADS-B
Sun 12:57:02 PM 37.6761 -122.3120 43° Northeast 190 219 3,000 353 Climbing FlightAware ADS-B
Sun 12:57:06 PM 37.6787 -122.3100 31° Northeast 193 222 3,000 600 Level FlightAware ADS-B
Sun 12:57:12 PM 37.6835 -122.3070 26° Northeast 196 226 3,100 1,000 Climbing FlightAware ADS-B
Sun 12:57:18 PM 37.6887 -122.3050 17° North 203 234 3,200 667 Climbing FlightAware ADS-B
Sun 12:57:21 PM 37.6919 -122.3040 14° North 206 237 3,200 462 Level FlightAware ADS-B
Sun 12:57:31 PM 37.7020 -122.3030 North 216 249 3,300 480 Climbing FlightAware ADS-B
Sun 12:57:46 PM 37.7173 -122.3020 North 235 270 3,400 947 Climbing FlightAware ADS-B
Sun 12:58:09 PM 37.7439 -122.2990 North 255 293 3,900 1,350 Climbing FlightAware ADS-B
Sun 12:58:26 PM 37.7641 -122.2960 North 265 305 4,300 1,714 Climbing FlightAware ADS-B
Sun 12:59:12 PM 37.8228 -122.2880 North 287 330 5,700 1,900 Climbing FlightAware ADS-B
Sun 12:59:26 PM 37.8418 -122.2820 14° North 289 333 6,200 2,118 Climbing FlightAware ADS-B
Sun 12:59:46 PM 37.8620 -122.2620 38° Northeast 286 329 6,900 2,308 Climbing FlightAware ADS-B
Sun 12:59:52 PM 37.8677 -122.2540 48° Northeast 285 328 7,200 2,000 Climbing FlightAware ADS-B
Sun 01:00:07 PM 37.8813 -122.2350 48° Northeast 291 335 7,600 1,800 Climbing FlightAware ADS-B
Sun 01:00:22 PM 37.8951 -122.2160 47° Northeast 296 341 8,100 2,000 Climbing FlightAware ADS-B
Sun 01:00:37 PM 37.9096 -122.1970 46° Northeast 298 343 8,600 1,935 Climbing FlightAware ADS-B
Sun 01:00:53 PM 37.9252 -122.1780 44° Northeast 298 343 9,100 2,000 Climbing FlightAware ADS-B
Sun 01:01:10 PM 37.9421 -122.1580 43° Northeast 301 346 9,700 1,440 Climbing FlightAware ADS-B
Sun 01:01:43 PM 37.9769 -122.1170 43° Northeast 307 353 10,300 831 Climbing FlightAware ADS-B
Sun 01:02:15 PM 38.0134 -122.0740 43° Northeast 337 388 10,600 1,105 Climbing FlightAware ADS-B
Sun 01:02:59 PM 38.0661 -122.0110 43° Northeast 364 419 11,700 1,280 Climbing FlightAware ADS-B
Sun 01:03:30 PM 38.1052 -121.9640 43° Northeast 383 441 12,200 1,378 Climbing FlightAware ADS-B
Sun 01:04:13 PM 38.1605 -121.8970 44° Northeast 389 448 13,400 1,562 Climbing FlightAware ADS-B
Sun 01:04:43 PM 38.2008 -121.8480 44° Northeast 395 455 14,100 1,500 Climbing FlightAware ADS-B
Sun 01:05:17 PM 38.2454 -121.7940 44° Northeast 400 460 15,000 1,688 Climbing FlightAware ADS-B
Sun 01:05:47 PM 38.2857 -121.7450 44° Northeast 401 461 15,900 1,800 Climbing FlightAware ADS-B
Sun 01:06:17 PM 38.3261 -121.6950 44° Northeast 401 461 16,800 1,500 Climbing FlightAware ADS-B
Sun 01:06:27 PM 38.3386 -121.6780 47° Northeast 404 465 16,900 1,125 Climbing FlightAware ADS-B
Sun 01:06:33 PM 38.3452 -121.6660 55° Northeast 404 465 17,100 1,135 Climbing FlightAware ADS-B
Sun 01:07:04 PM 38.3765 -121.6040 57° Northeast 413 475 17,600 1,180 Climbing FlightAware ADS-B
Sun 01:07:34 PM 38.4075 -121.5410 58° Northeast 417 480 18,300 1,279 Climbing FlightAware ADS-B
Sun 01:08:05 PM 38.4394 -121.4770 58° Northeast 421 484 18,900 1,279 Climbing FlightAware ADS-B
Sun 01:08:35 PM 38.4715 -121.4130 57° Northeast 424 488 19,600 1,238 Climbing FlightAware ADS-B
Sun 01:09:08 PM 38.5064 -121.3440 57° Northeast 429 494 20,200 1,091 Climbing FlightAware ADS-B
Sun 01:09:41 PM 38.5412 -121.2740 58° Northeast 434 499 20,800 1,048 Climbing FlightAware ADS-B
Sun 01:10:11 PM 38.5743 -121.2070 58° Northeast 441 507 21,300 1,065 Climbing FlightAware ADS-B
Sun 01:10:43 PM 38.6094 -121.1370 57° Northeast 444 511 21,900 -1,406 Climbing FlightAware ADS-B
Sun 01:11:15 PM 38.6040 -121.1510 244° Southwest 424 488 19,800 -1,340 Descending FlightAware ADS-B
Sun 01:12:17 PM 38.6610 -121.0400 57° Northeast 424 488 19,800 2,286 Level FlightAware ADS-B
Sun 01:13:00 PM 38.7440 -120.8640 59° Northeast 464 534 23,800 3,840 Climbing FlightAware ADS-B
Sun 01:13:32 PM 38.7922 -120.7672 59° Northeast 457 526 24,600 1,484 Climbing Oakland Center
Sun 01:14:33 PM 38.8614 -120.6278 57° Northeast 461 531 26,100 1,415 Climbing Oakland Center
Sun 01:15:35 PM 38.9278 -120.4906 58° Northeast 457 526 27,500 1,403 Climbing Oakland Center
Sun 01:16:37 PM 38.9931 -120.3578 58° Northeast 445 512 29,000 776 Climbing Oakland Center
Sun 01:22:40 PM 39.3870 -119.5310 58° Northeast 464 534 33,000 600 Climbing FlightAware ADS-B
Sun 01:23:17 PM 39.4270 -119.4460 59° Northeast 468 539 33,000  Level FlightAware ADS-B
Sun 01:25:56 PM 39.6060 -119.0650 59° Northeast 463 533 33,000  Level FlightAware ADS-B
Sun 01:26:52 PM 39.6647 -118.9369 59° Northeast 462 532 33,000  Level Oakland Center
Sun 01:27:54 PM 39.7322 -118.7908 59° Northeast 466 536 33,000  Level Oakland Center
Sun 01:28:56 PM 39.7994 -118.6444 59° Northeast 468 539 33,000  Level Oakland Center
Sun 01:29:57 PM 39.8669 -118.4989 59° Northeast 466 536 33,000  Level Oakland Center
Sun 01:30:59 PM 39.9336 -118.3506 60° Northeast 471 542 33,000  Level Oakland Center
Sun 01:32:01 PM 40.0003 -118.2022 60° Northeast 472 543 33,000  Level Oakland Center
Sun 01:33:02 PM 40.0669 -118.0553 59° Northeast 472 543 33,000  Level Oakland Center
Sun 01:34:04 PM 40.1333 -117.9081 59° Northeast 470 541 33,000  Level Oakland Center
Sun 01:35:06 PM 40.1989 -117.7606 60° Northeast 469 540 33,000  Level Oakland Center
Sun 01:36:36 PM 40.3053 -117.5225 60° Northeast 468 539 33,000  Level Salt Lake Center
Sun 01:37:38 PM 40.3681 -117.3817 60° Northeast 468 539 33,000  Level Salt Lake Center
Sun 01:38:40 PM 40.4431 -117.2153 59° Northeast 470 541 33,000  Level Salt Lake Center
Sun 01:39:42 PM 40.5067 -117.0711 60° Northeast 471 542 33,000  Level Salt Lake Center
Sun 01:40:44 PM 40.5686 -116.9225 61° Northeast 473 544 33,000  Level Salt Lake Center
Sun 01:46:53 PM 40.8441 -115.9000 61° Northeast 468 539 33,000  Level FlightAware ADS-B
Sun 01:47:23 PM 40.8656 -115.8180 71° East 468 539 33,000  Level FlightAware ADS-B
Sun 01:48:21 PM 40.9066 -115.6610 71° East 467 537 33,000  Level FlightAware ADS-B
Sun 01:48:53 PM 40.9287 -115.5760 71° East 466 536 33,000  Level FlightAware ADS-B
Sun 01:49:25 PM 40.9508 -115.4910 71° East 465 535 33,000  Level FlightAware ADS-B
Sun 01:51:48 PM 41.0486 -115.1090 71° East 461 531 33,000  Level FlightAware ADS-B
Sun 01:52:23 PM 41.0731 -115.0130 71° East 462 532 33,000  Level FlightAware ADS-B
Sun 01:52:53 PM 41.0934 -114.9330 71° East 463 533 33,000  Level FlightAware ADS-B
Sun 01:53:25 PM 41.1147 -114.8480 72° East 463 533 33,000  Level FlightAware ADS-B
Sun 01:54:07 PM 41.1432 -114.7350 71° East 463 533 33,000  Level FlightAware ADS-B
Sun 01:54:38 PM 41.1638 -114.6530 72° East 462 532 33,000  Level FlightAware ADS-B
Sun 01:55:08 PM 41.1843 -114.5710 72° East 463 533 33,000  Level FlightAware ADS-B
Sun 01:55:39 PM 41.2050 -114.4870 72° East 463 533 33,000  Level FlightAware ADS-B
Sun 01:56:10 PM 41.2252 -114.4060 72° East 464 534 33,000  Level FlightAware ADS-B
Sun 01:56:45 PM 41.2492 -114.3080 72° East 464 534 33,000  Level FlightAware ADS-B
Sun 01:57:16 PM 41.2693 -114.2260 72° East 465 535 33,000  Level FlightAware ADS-B
Sun 01:57:48 PM 41.2908 -114.1380 72° East 465 535 33,000  Level FlightAware ADS-B
Sun 01:58:19 PM 41.3110 -114.0560 72° East 465 535 33,000  Level FlightAware ADS-B
Sun 01:58:52 PM 41.3329 -113.9660 72° East 465 535 33,000  Level FlightAware ADS-B
Sun 01:59:26 PM 41.3550 -113.8740 72° East 465 535 33,000  Level FlightAware ADS-B
Sun 01:59:55 PM 41.3696 -113.7930 76° East 467 537 33,000  Level FlightAware ADS-B
Sun 02:00:26 PM 41.3809 -113.7040 80° East 469 540 33,000  Level FlightAware ADS-B
Sun 02:00:56 PM 41.3919 -113.6190 80° East 469 540 33,000  Level FlightAware ADS-B
Sun 02:01:46 PM 41.4099 -113.4780 80° East 469 540 33,000  Level FlightAware ADS-B
Sun 02:02:17 PM 41.4210 -113.3900 80° East 468 539 33,000  Level FlightAware ADS-B
Sun 02:02:47 PM 41.4318 -113.3030 81° East 467 537 33,000  Level FlightAware ADS-B
Sun 02:03:18 PM 41.4422 -113.2200 80° East 467 537 33,000  Level FlightAware ADS-B
Sun 02:03:48 PM 41.4532 -113.1320 81° East 468 539 33,000  Level FlightAware ADS-B
Sun 02:04:19 PM 41.4638 -113.0460 81° East 468 539 33,000  Level FlightAware ADS-B
Sun 02:05:11 PM 41.4821 -112.8950 81° East 468 539 33,000  Level FlightAware ADS-B
Sun 02:06:00 PM 41.4987 -112.7580 81° East 467 537 33,000  Level FlightAware ADS-B
Sun 02:06:31 PM 41.5093 -112.6700 81° East 467 537 33,000  Level FlightAware ADS-B
Sun 02:07:05 PM 41.5208 -112.5740 81° East 468 539 33,000  Level FlightAware ADS-B
Sun 02:07:39 PM 41.5324 -112.4750 81° East 471 542 33,000  Level FlightAware ADS-B
Sun 02:08:00 PM 41.5391 -112.4150 81° East 471 542 33,000  Level FlightAware ADS-B
Sun 02:08:33 PM 41.5489 -112.3200 82° East 470 541 33,000  Level FlightAware ADS-B
Sun 02:09:38 PM 41.5682 -112.1350 82° East 472 543 33,000  Level FlightAware ADS-B
Sun 02:10:34 PM 41.5850 -111.9720 82° East 472 543 33,000  Level FlightAware ADS-B
Sun 02:11:05 PM 41.5941 -111.8820 82° East 475 547 33,000  Level FlightAware ADS-B
Sun 02:11:40 PM 41.6042 -111.7810 82° East 475 547 33,000  Level FlightAware ADS-B
Sun 02:12:12 PM 41.6133 -111.6900 82° East 476 548 33,000  Level FlightAware ADS-B
Sun 02:12:42 PM 41.6223 -111.6010 82° East 477 549 33,000  Level FlightAware ADS-B
Sun 02:13:13 PM 41.6310 -111.5100 83° East 477 549 33,000  Level FlightAware ADS-B
Sun 02:13:43 PM 41.6397 -111.4220 82° East 477 549 33,000  Level FlightAware ADS-B
Sun 02:14:13 PM 41.6482 -111.3340 83° East 477 549 33,000  Level FlightAware ADS-B
Sun 02:14:44 PM 41.6566 -111.2460 83° East 477 549 33,000  Level FlightAware ADS-B
Sun 02:15:23 PM 41.6677 -111.1310 83° East 477 549 33,000  Level FlightAware ADS-B
Sun 02:15:59 PM 41.6772 -111.0290 83° East 476 548 33,000  Level FlightAware ADS-B
Sun 02:16:40 PM 41.6884 -110.9100 83° East 475 547 33,000  Level FlightAware ADS-B
Sun 02:17:26 PM 41.7011 -110.7720 83° East 474 545 33,000  Level FlightAware ADS-B
Sun 02:17:57 PM 41.7078 -110.7028 83° East 472 543 33,000  Level Salt Lake Center
Sun 02:18:59 PM 41.7233 -110.5344 83° East 475 547 33,000  Level Salt Lake Center
Sun 02:20:01 PM 41.7397 -110.3394 84° East 474 545 33,000  Level Salt Lake Center
Sun 02:21:03 PM 41.7539 -110.1697 84° East 479 551 33,000  Level Salt Lake Center
Sun 02:22:05 PM 41.7708 -109.9717 83° East 480 552 33,000  Level Salt Lake Center
Sun 02:23:07 PM 41.7853 -109.8017 83° East 480 552 33,000 97 Level Salt Lake Center
Sun 02:24:09 PM 41.8019 -109.6022 84° East 481 554 33,200 672 Climbing Salt Lake Center
Sun 02:25:12 PM 41.8156 -109.4347 84° East 474 545 34,400 871 Climbing Salt Lake Center
Sun 02:26:13 PM 41.8289 -109.2689 84° East 468 539 35,000 293 Climbing Salt Lake Center
Sun 02:27:15 PM 41.8447 -109.0719 84° East 471 542 35,000  Level Salt Lake Center
Sun 02:28:17 PM 41.8578 -108.9006 84° East 477 549 35,000  Level Salt Lake Center
Sun 02:29:19 PM 41.8725 -108.7019 84° East 477 549 35,000  Level Salt Lake Center
Sun 02:30:21 PM 41.8853 -108.5314 84° East 478 550 35,000  Level Salt Lake Center
Sun 02:31:23 PM 41.8992 -108.3336 85° East 477 549 35,000  Level Salt Lake Center
Sun 02:32:25 PM 41.9111 -108.1625 85° East 481 554 35,000  Level Salt Lake Center
Sun 02:33:27 PM 41.9231 -107.9611 85° East 483 556 35,000  Level Salt Lake Center
Sun 02:34:29 PM 41.9344 -107.7886 85° East 484 557 35,000  Level Salt Lake Center
Sun 02:35:31 PM 41.9469 -107.6164 84° East 485 558 35,000  Level Salt Lake Center
Sun 02:36:56 PM 41.9614 -107.3547 86° East 486 559 35,000  Level Denver Center
Sun 02:37:58 PM 41.9725 -107.1822 85° East 485 558 35,000  Level Denver Center
Sun 02:39:00 PM 41.9828 -107.0094 85° East 485 558 35,000  Level Denver Center
Sun 02:40:03 PM 41.9989 -106.7797 85° East 485 558 35,000  Level Denver Center
Sun 02:45:24 PM 42.2190 -105.9380 85° East 491 565 35,000  Level FlightAware ADS-B
Sun 02:46:03 PM 42.2160 -105.8370 92° East 491 565 35,000  Level FlightAware ADS-B
Sun 02:47:03 PM 42.2120 -105.6800 92° East 491 565 35,000  Level FlightAware ADS-B
Sun 02:47:39 PM 42.2100 -105.5860 92° East 491 565 35,000  Level FlightAware ADS-B
Sun 02:48:35 PM 42.2040 -105.3590 92° East 488 562 35,000  Level FlightAware ADS-B
Sun 02:48:48 PM 42.2005 -105.2510 92° East 487 560 35,000  Level FlightAware ADS-B
Sun 02:49:18 PM 42.1979 -105.1610 92° East 487 560 35,000  Level FlightAware ADS-B
Sun 02:49:48 PM 42.1952 -105.0690 92° East 487 560 35,000  Level FlightAware ADS-B
Sun 02:50:19 PM 42.1925 -104.9780 92° East 487 560 35,000  Level FlightAware ADS-B
Sun 02:50:50 PM 42.1896 -104.8850 92° East 486 559 35,000  Level FlightAware ADS-B
Sun 02:51:21 PM 42.1866 -104.7900 92° East 486 559 35,000  Level FlightAware ADS-B
Sun 02:51:51 PM 42.1836 -104.6970 92° East 486 559 35,000  Level FlightAware ADS-B
Sun 02:52:23 PM 42.1803 -104.6020 93° East 487 560 35,000  Level FlightAware ADS-B
Sun 02:52:53 PM 42.1772 -104.5110 93° East 487 560 35,000  Level FlightAware ADS-B
Sun 02:53:25 PM 42.1737 -104.4150 93° East 486 559 35,000  Level FlightAware ADS-B
Sun 02:53:57 PM 42.1703 -104.3200 93° East 485 558 35,000  Level FlightAware ADS-B
Sun 02:54:27 PM 42.1670 -104.2280 93° East 484 557 35,000  Level FlightAware ADS-B
Sun 02:54:57 PM 42.1637 -104.1380 93° East 483 556 35,000  Level FlightAware ADS-B
Sun 02:55:28 PM 42.1600 -104.0450 93° East 483 556 35,000  Level FlightAware ADS-B
Sun 02:55:59 PM 42.1563 -103.9540 93° East 482 555 35,000  Level FlightAware ADS-B
Sun 02:56:29 PM 42.1527 -103.8630 93° East 480 552 35,000  Level FlightAware ADS-B
Sun 02:56:59 PM 42.1491 -103.7730 93° East 477 549 35,000  Level FlightAware ADS-B
Sun 02:57:31 PM 42.1452 -103.6800 93° East 477 549 35,000  Level FlightAware ADS-B
Sun 02:58:01 PM 42.1414 -103.5910 93° East 477 549 35,000  Level FlightAware ADS-B
Sun 02:58:31 PM 42.1375 -103.5020 93° East 478 550 35,000  Level FlightAware ADS-B
Sun 02:59:02 PM 42.1335 -103.4100 93° East 479 551 35,000  Level FlightAware ADS-B
Sun 02:59:32 PM 42.1294 -103.3200 93° East 479 551 35,000  Level FlightAware ADS-B
Sun 03:00:08 PM 42.1247 -103.2150 93° East 479 551 35,000  Level FlightAware ADS-B
Sun 03:00:39 PM 42.1202 -103.1210 94° East 480 552 35,000  Level FlightAware ADS-B
Sun 03:01:10 PM 42.1159 -103.0300 94° East 479 551 35,000  Level FlightAware ADS-B
Sun 03:01:41 PM 42.1114 -102.9380 94° East 479 551 35,000  Level FlightAware ADS-B
Sun 03:02:12 PM 42.1069 -102.8460 94° East 479 551 35,000  Level FlightAware ADS-B
Sun 03:02:47 PM 42.1018 -102.7420 94° East 480 552 35,000  Level FlightAware ADS-B
Sun 03:03:17 PM 42.0972 -102.6530 94° East 479 551 35,000  Level FlightAware ADS-B
Sun 03:03:48 PM 42.0925 -102.5620 94° East 479 551 35,000  Level FlightAware ADS-B
Sun 03:04:19 PM 42.0878 -102.4710 94° East 479 551 35,000  Level FlightAware ADS-B
Sun 03:05:03 PM 42.0807 -102.3380 94° East 478 550 35,000  Level FlightAware ADS-B
Sun 03:05:34 PM 42.0757 -102.2470 94° East 477 549 35,000  Level FlightAware ADS-B
Sun 03:06:10 PM 42.0698 -102.1400 94° East 477 549 35,000  Level FlightAware ADS-B
Sun 03:06:48 PM 42.0635 -102.0280 94° East 478 550 35,000  Level FlightAware ADS-B
Sun 03:07:40 PM 42.0545 -101.8730 94° East 480 552 35,000  Level FlightAware ADS-B
Sun 03:08:40 PM 42.0740 -101.9690 285° West 479 551 35,000  Level FlightAware ADS-B
Sun 03:09:41 PM 42.0331 -101.5297 285° West 481 554 35,000  Level Minneapolis Center
Sun 03:10:43 PM 42.0214 -101.3500 95° East 483 556 35,000  Level Minneapolis Center
Sun 03:11:45 PM 42.0106 -101.1694 95° East 484 557 35,000  Level Minneapolis Center
Sun 03:12:47 PM 41.9997 -100.9894 95° East 484 557 35,000  Level Minneapolis Center
Sun 03:18:51 PM 41.9942 -99.8839 95° East 474 545 35,000  Level FlightAware ADS-B
Sun 03:19:23 PM 41.9952 -99.7905 89° East 473 544 35,000  Level FlightAware ADS-B
Sun 03:19:53 PM 41.9960 -99.7024 89° East 473 544 35,000  Level FlightAware ADS-B
Sun 03:20:23 PM 41.9968 -99.6138 89° East 472 543 35,000  Level FlightAware ADS-B
Sun 03:20:55 PM 41.9977 -99.5207 89° East 472 543 35,000  Level FlightAware ADS-B
Sun 03:21:26 PM 41.9983 -99.4306 89° East 473 544 35,000  Level FlightAware ADS-B
Sun 03:21:57 PM 41.9990 -99.3406 89° East 473 544 35,000  Level FlightAware ADS-B
Sun 03:22:52 PM 42.0000 -99.1818 89° East 475 547 35,000  Level FlightAware ADS-B
Sun 03:23:22 PM 42.0005 -99.0897 90° East 476 548 35,000  Level FlightAware ADS-B
Sun 03:23:52 PM 42.0007 -98.9995 90° East 477 549 35,000  Level FlightAware ADS-B
Sun 03:24:23 PM 42.0010 -98.9095 90° East 477 549 35,000  Level FlightAware ADS-B
Sun 03:24:54 PM 42.0012 -98.8181 90° East 476 548 35,000  Level FlightAware ADS-B
Sun 03:25:24 PM 42.0014 -98.7283 90° East 475 547 35,000  Level FlightAware ADS-B
Sun 03:26:01 PM 42.0014 -98.6215 90° East 475 547 35,000  Level FlightAware ADS-B
Sun 03:26:33 PM 42.0014 -98.5276 90° East 473 544 35,000  Level FlightAware ADS-B
Sun 03:27:04 PM 42.0012 -98.4346 90° East 472 543 35,000  Level FlightAware ADS-B
Sun 03:27:35 PM 42.0011 -98.3461 90° East 471 542 35,000  Level FlightAware ADS-B
Sun 03:28:05 PM 42.0010 -98.2612 90° East 471 542 35,000  Level FlightAware ADS-B
Sun 03:28:36 PM 42.0007 -98.1679 90° East 472 543 35,000  Level FlightAware ADS-B
Sun 03:29:06 PM 42.0004 -98.0805 90° East 472 543 35,000  Level FlightAware ADS-B
Sun 03:29:33 PM 41.9998 -97.9999 91° East 474 545 35,000  Level FlightAware ADS-B
Sun 03:30:04 PM 41.9955 -97.9130 94° East 476 548 35,000  Level FlightAware ADS-B
Sun 03:30:43 PM 41.9891 -97.7929 94° East 477 549 35,000  Level FlightAware ADS-B
Sun 03:31:14 PM 41.9844 -97.7037 94° East 477 549 35,000  Level FlightAware ADS-B
Sun 03:31:44 PM 41.9796 -97.6130 94° East 478 550 35,000  Level FlightAware ADS-B
Sun 03:32:16 PM 41.9744 -97.5190 94° East 478 550 35,000  Level FlightAware ADS-B
Sun 03:32:46 PM 41.9694 -97.4301 94° East 478 550 35,000  Level FlightAware ADS-B
Sun 03:33:16 PM 41.9643 -97.3406 94° East 478 550 35,000  Level FlightAware ADS-B
Sun 03:33:47 PM 41.9591 -97.2505 94° East 477 549 35,000  Level FlightAware ADS-B
Sun 03:34:28 PM 41.9521 -97.1301 94° East 476 548 35,000  Level FlightAware ADS-B
Sun 03:34:58 PM 41.9469 -97.0422 95° East 477 549 35,000  Level FlightAware ADS-B
Sun 03:35:28 PM 41.9415 -96.9525 95° East 476 548 35,000  Level FlightAware ADS-B
Sun 03:35:58 PM 41.9361 -96.8647 95° East 477 549 35,000  Level FlightAware ADS-B
Sun 03:36:29 PM 41.9306 -96.7750 95° East 477 549 35,000  Level FlightAware ADS-B
Sun 03:36:59 PM 41.9251 -96.6859 95° East 477 549 35,000  Level FlightAware ADS-B
Sun 03:37:32 PM 41.9190 -96.5900 95° East 477 549 35,000  Level FlightAware ADS-B
Sun 03:38:02 PM 41.9132 -96.4998 95° East 476 548 35,000  Level FlightAware ADS-B
Sun 03:38:32 PM 41.9076 -96.4125 95° East 475 547 35,000  Level FlightAware ADS-B
Sun 03:39:03 PM 41.9018 -96.3232 95° East 474 545 35,000  Level FlightAware ADS-B
Sun 03:39:33 PM 41.8961 -96.2383 95° East 474 545 35,000  Level FlightAware ADS-B
Sun 03:40:08 PM 41.8889 -96.1327 95° East 473 544 35,000  Level FlightAware ADS-B
Sun 03:40:38 PM 41.8829 -96.0444 95° East 473 544 35,000  Level FlightAware ADS-B
Sun 03:41:08 PM 41.8770 -95.9588 95° East 474 545 35,000  Level FlightAware ADS-B
Sun 03:41:38 PM 41.8707 -95.8681 95° East 474 545 35,000  Level FlightAware ADS-B
Sun 03:42:08 PM 41.8645 -95.7804 95° East 474 545 35,000  Level FlightAware ADS-B
Sun 03:42:39 PM 41.8582 -95.6926 95° East 472 543 35,000  Level FlightAware ADS-B
Sun 03:43:09 PM 41.8519 -95.6047 95° East 472 543 35,000  Level FlightAware ADS-B
Sun 03:43:39 PM 41.8456 -95.5172 95° East 472 543 35,000  Level FlightAware ADS-B
Sun 03:44:10 PM 41.8391 -95.4287 96° East 472 543 35,000  Level FlightAware ADS-B
Sun 03:44:40 PM 41.8326 -95.3420 96° East 470 541 35,000  Level FlightAware ADS-B
Sun 03:45:10 PM 41.8260 -95.2545 96° East 468 539 35,000  Level FlightAware ADS-B
Sun 03:45:41 PM 41.8196 -95.1684 96° East 467 537 35,000  Level FlightAware ADS-B
Sun 03:46:12 PM 41.8125 -95.0763 96° East 465 535 35,000  Level FlightAware ADS-B
Sun 03:46:42 PM 41.8058 -94.9899 96° East 463 533 35,000  Level FlightAware ADS-B
Sun 03:47:12 PM 41.7991 -94.9038 96° East 462 532 35,000  Level FlightAware ADS-B
Sun 03:47:43 PM 41.7923 -94.8180 96° East 460 529 35,000  Level FlightAware ADS-B
Sun 03:48:13 PM 41.7854 -94.7327 96° East 458 527 35,000  Level FlightAware ADS-B
Sun 03:48:43 PM 41.7788 -94.6481 96° East 458 527 35,000  Level FlightAware ADS-B
Sun 03:49:14 PM 41.7719 -94.5623 96° East 458 527 35,000  Level FlightAware ADS-B
Sun 03:49:44 PM 41.7648 -94.4776 96° East 459 528 35,000  Level FlightAware ADS-B
Sun 03:50:14 PM 41.7578 -94.3921 96° East 461 531 35,000  Level FlightAware ADS-B
Sun 03:50:45 PM 41.7505 -94.3053 96° East 461 531 35,000  Level FlightAware ADS-B
Sun 03:51:15 PM 41.7435 -94.2202 96° East 461 531 35,000  Level FlightAware ADS-B
Sun 03:51:45 PM 41.7362 -94.1340 96° East 460 529 35,000 98 Level FlightAware ADS-B
Sun 03:52:16 PM 41.7287 -94.0478 97° East 456 525 35,100 98 Climbing FlightAware ADS-B
Sun 03:52:46 PM 41.7214 -93.9640 97° East 453 521 35,100 -100 Level FlightAware ADS-B
Sun 03:53:16 PM 41.7140 -93.8802 97° East 450 518 35,000 -98 Descending FlightAware ADS-B
Sun 03:53:47 PM 41.7067 -93.7953 97° East 446 513 35,000  Level FlightAware ADS-B
Sun 03:54:06 PM 41.7044 -93.7431 93° East 445 512 35,000  Level FlightAware ADS-B
Sun 03:54:18 PM 41.7054 -93.7122 88° East 444 511 35,000  Level FlightAware ADS-B
Sun 03:54:27 PM 41.7081 -93.6878 82° East 445 512 35,000  Level FlightAware ADS-B
Sun 03:54:57 PM 41.7200 -93.6071 79° East 443 510 35,000  Level FlightAware ADS-B
Sun 03:55:28 PM 41.7313 -93.5244 80° East 440 506 35,000  Level FlightAware ADS-B
Sun 03:55:58 PM 41.7419 -93.4470 80° East 438 504 35,000  Level FlightAware ADS-B
Sun 03:56:28 PM 41.7536 -93.3637 79° East 440 506 35,000 295 Level FlightAware ADS-B
Sun 03:56:59 PM 41.7652 -93.2807 79° East 441 507 35,300 740 Climbing FlightAware ADS-B
Sun 03:57:41 PM 41.7805 -93.1694 80° East 440 506 35,900 575 Climbing FlightAware ADS-B
Sun 03:58:12 PM 41.7918 -93.0869 80° East 445 512 36,000 169 Climbing FlightAware ADS-B
Sun 04:04:12 PM 41.9150 -92.1540 80° East 443 510 37,000 148 Climbing FlightAware ADS-B
Sun 04:04:57 PM 41.9280 -92.0530 80° East 444 511 37,000  Level FlightAware ADS-B
Sun 04:05:28 PM 41.9419 -91.9375 80° East 444 511 37,000  Level Minneapolis Center
Sun 04:06:30 PM 41.9667 -91.7436 80° East 445 512 37,000  Level Minneapolis Center
Sun 04:11:54 PM 42.0660 -90.9110 80° East 436 502 37,000  Level FlightAware ADS-B
Sun 04:12:54 PM 42.0870 -90.7330 81° East 436 502 37,000  Level FlightAware ADS-B
Sun 04:13:42 PM 42.1050 -90.5730 81° East 434 499 37,000  Level FlightAware ADS-B
Sun 04:14:21 PM 42.1170 -90.4680 81° East 434 499 37,000  Level FlightAware ADS-B
Sun 04:17:52 PM 42.1780 -89.9100 81° East 426 490 37,000  Level FlightAware ADS-B
Sun 04:18:35 PM 42.1900 -89.7960 82° East 426 490 37,000  Level FlightAware ADS-B
Sun 04:19:16 PM 42.2010 -89.6900 82° East 427 491 37,000  Level FlightAware ADS-B
Sun 04:19:57 PM 42.2120 -89.5800 82° East 428 493 37,000  Level FlightAware ADS-B
Sun 04:20:35 PM 42.2230 -89.4790 82° East 428 493 37,000  Level FlightAware ADS-B
Sun 04:23:25 PM 42.2680 -89.0300 82° East 430 495 37,000  Level FlightAware ADS-B
Sun 04:24:09 PM 42.2800 -88.9120 82° East 432 497 37,000  Level FlightAware ADS-B
Sun 04:24:51 PM 42.2900 -88.8000 83° East 434 499 37,000  Level FlightAware ADS-B
Sun 04:25:35 PM 42.3020 -88.6810 82° East 435 501 37,000  Level FlightAware ADS-B
Sun 04:26:15 PM 42.3120 -88.5730 83° East 436 502 37,000  Level FlightAware ADS-B
Sun 04:26:59 PM 42.3230 -88.4550 83° East 437 503 37,000  Level FlightAware ADS-B
Sun 04:27:39 PM 42.3330 -88.3480 83° East 436 502 37,000  Level FlightAware ADS-B
Sun 04:28:23 PM 42.3440 -88.2280 83° East 435 501 37,000  Level FlightAware ADS-B
Sun 04:29:02 PM 42.3540 -88.1260 82° East 436 502 37,000  Level FlightAware ADS-B
Sun 04:29:47 PM 42.3650 -88.0030 83° East 436 502 37,000  Level FlightAware ADS-B
Sun 04:29:55 PM 42.3670 -87.9790 84° East 436 502 37,000  Level FlightAware ADS-B
Sun 04:31:16 PM 42.3850 -87.7790 83° East 432 497 37,000  Level FlightAware ADS-B
Sun 04:31:59 PM 42.3960 -87.6460 84° East 431 496 37,000  Level FlightAware ADS-B
Sun 04:32:42 PM 42.4060 -87.5340 83° East 431 496 37,000  Level FlightAware ADS-B
Sun 04:33:22 PM 42.4150 -87.4260 84° East 432 497 37,000  Level FlightAware ADS-B
Sun 04:34:09 PM 42.4260 -87.3000 83° East 433 498 37,000  Level FlightAware ADS-B
Sun 04:34:49 PM 42.4340 -87.1940 84° East 434 499 37,000  Level FlightAware ADS-B
Sun 04:35:29 PM 42.4430 -87.0890 83° East 433 498 37,000  Level FlightAware ADS-B
Sun 04:36:13 PM 42.4530 -86.9650 84° East 433 498 37,000  Level FlightAware ADS-B
Sun 04:36:51 PM 42.4610 -86.8640 84° East 433 498 37,000  Level FlightAware ADS-B
Sun 04:37:32 PM 42.4700 -86.7560 84° East 433 498 37,000  Level FlightAware ADS-B
Sun 04:38:16 PM 42.4790 -86.6360 84° East 433 498 37,000  Level FlightAware ADS-B
Sun 04:38:59 PM 42.4880 -86.5230 84° East 433 498 37,000  Level FlightAware ADS-B
Sun 04:39:42 PM 42.4970 -86.4040 84° East 434 499 37,000  Level FlightAware ADS-B
Sun 04:40:21 PM 42.5050 -86.2990 84° East 436 502 37,000  Level FlightAware ADS-B
Sun 04:41:06 PM 42.5140 -86.1780 84° East 443 510 37,000  Level FlightAware ADS-B
Sun 04:41:48 PM 42.5220 -86.0580 85° East 453 521 37,000  Level FlightAware ADS-B
Sun 04:42:30 PM 42.5310 -85.9400 84° East 453 521 37,000  Level FlightAware ADS-B
Sun 04:43:09 PM 42.5390 -85.8270 84° East 452 520 37,000  Level FlightAware ADS-B
Sun 04:43:56 PM 42.5480 -85.7000 84° East 451 519 37,000  Level FlightAware ADS-B
Sun 04:44:37 PM 42.5550 -85.5850 85° East 452 520 37,000  Level FlightAware ADS-B
Sun 04:45:18 PM 42.5640 -85.4660 84° East 453 521 37,000  Level FlightAware ADS-B
Sun 04:45:56 PM 42.5710 -85.3610 85° East 456 525 37,000  Level FlightAware ADS-B
Sun 04:46:40 PM 42.5790 -85.2340 85° East 458 527 37,000  Level FlightAware ADS-B
Sun 04:47:23 PM 42.5870 -85.1090 85° East 462 532 37,000  Level FlightAware ADS-B
Sun 04:48:03 PM 42.5940 -84.9990 85° East 467 537 37,000  Level FlightAware ADS-B
Sun 04:48:48 PM 42.6090 -84.8620 81° East 471 542 37,000 68 Level FlightAware ADS-B
Sun 04:49:31 PM 42.6220 -84.7440 81° East 472 543 37,100  Climbing FlightAware ADS-B
Sun 04:50:08 PM 42.6340 -84.6280 82° East 473 544 37,000 -75 Descending FlightAware ADS-B
Sun 04:50:51 PM 42.6460 -84.5060 82° East 473 544 37,000  Level FlightAware ADS-B
Sun 04:51:37 PM 42.6600 -84.3700 82° East 474 545 37,000  Level FlightAware ADS-B
Sun 04:52:19 PM 42.6710 -84.2490 83° East 474 545 37,000  Level FlightAware ADS-B
Sun 04:52:57 PM 42.6830 -84.1300 82° East 478 550 37,000  Level FlightAware ADS-B
Sun 04:53:43 PM 42.6950 -83.9980 83° East 482 555 37,000  Level FlightAware ADS-B
Sun 04:54:23 PM 42.7070 -83.8740 82° East 485 558 37,000  Level FlightAware ADS-B
Sun 04:55:09 PM 42.7200 -83.7340 83° East 489 563 37,000  Level FlightAware ADS-B
Sun 04:55:49 PM 42.7310 -83.6120 83° East 490 564 37,000  Level FlightAware ADS-B
Sun 04:56:29 PM 42.7420 -83.4920 83° East 493 567 37,000  Level FlightAware ADS-B
Sun 04:57:13 PM 42.7540 -83.3540 83° East 496 571 37,000  Level FlightAware ADS-B
Sun 04:57:53 PM 42.7650 -83.2310 83° East 498 573 37,000  Level FlightAware ADS-B
Sun 04:58:38 PM 42.7770 -83.0900 83° East 500 575 37,000  Level FlightAware ADS-B
Sun 04:59:16 PM 42.7880 -82.9700 83° East 502 578 37,000  Level FlightAware ADS-B
Sun 04:59:54 PM 42.7970 -82.8540 84° East 504 580 37,000  Level FlightAware ADS-B
Sun 05:01:02 PM 42.8140 -82.6480 84° East 507 583 37,000  Level FlightAware ADS-B
Sun 05:01:41 PM 42.8250 -82.5150 84° East 512 589 37,000  Level FlightAware ADS-B
Sun 05:02:23 PM 42.8360 -82.3820 84° East 517 595 37,000  Level FlightAware ADS-B
Sun 05:03:05 PM 42.8470 -82.2480 84° East 521 600 37,000  Level FlightAware ADS-B
Sun 05:03:51 PM 42.8570 -82.1090 84° East 523 602 37,000  Level FlightAware ADS-B
Sun 05:04:33 PM 42.8690 -81.9630 84° East 525 604 37,000  Level FlightAware ADS-B
Sun 05:05:22 PM 42.8800 -81.8060 84° East 529 609 37,000  Level FlightAware ADS-B
Sun 05:06:36 PM 42.8980 -81.5660 84° East 537 618 37,000  Level FlightAware ADS-B
Sun 05:10:08 PM 42.9470 -80.8720 84° East 541 623 37,000  Level FlightAware ADS-B
Sun 05:10:50 PM 42.9570 -80.7130 85° East 541 623 37,000  Level FlightAware ADS-B
Sun 05:11:32 PM 42.9650 -80.5790 85° East 541 623 37,000  Level FlightAware ADS-B
Sun 05:12:13 PM 42.9760 -80.4080 85° East 544 626 37,000  Level FlightAware ADS-B
Sun 05:13:08 PM 42.9880 -80.2220 85° East 544 626 37,000  Level FlightAware ADS-B
Sun 05:13:53 PM 42.9980 -80.0590 85° East 544 626 37,000  Level FlightAware ADS-B
Sun 05:14:46 PM 43.0200 -79.8780 81° East 567 652 37,000  Level FlightAware ADS-B
Sun 05:15:43 PM 43.0550 -79.7330 72° East 566 651 37,000  Level FlightAware ADS-B
Sun 05:16:32 PM 43.1070 -79.5150 72° East 564 649 37,000  Level FlightAware ADS-B
Sun 05:17:10 PM 43.1360 -79.3900 72° East 565 650 37,000  Level FlightAware ADS-B
Sun 05:17:57 PM 43.1740 -79.2300 72° East 565 650 37,000  Level FlightAware ADS-B
Sun 05:18:39 PM 43.2080 -79.0840 72° East 564 649 37,000  Level FlightAware ADS-B
Sun 05:19:19 PM 43.2390 -78.9480 73° East 563 648 37,000  Level FlightAware ADS-B
Sun 05:20:03 PM 43.2740 -78.7980 72° East 562 647 37,000  Level FlightAware ADS-B
Sun 05:20:43 PM 43.3050 -78.6620 73° East 561 646 37,000  Level FlightAware ADS-B
Sun 05:21:27 PM 43.3380 -78.5140 73° East 561 646 37,000  Level FlightAware ADS-B
Sun 05:22:07 PM 43.3690 -78.3770 73° East 561 646 37,000  Level FlightAware ADS-B
Sun 05:22:51 PM 43.4020 -78.2310 73° East 561 646 37,000  Level FlightAware ADS-B
Sun 05:23:33 PM 43.4340 -78.0830 73° East 561 646 37,000  Level FlightAware ADS-B
Sun 05:24:11 PM 43.4630 -77.9540 73° East 561 646 37,000  Level FlightAware ADS-B
Sun 05:24:55 PM 43.4950 -77.8060 73° East 562 647 37,000  Level FlightAware ADS-B
Sun 05:25:38 PM 43.5280 -77.6560 73° East 564 649 37,000  Level FlightAware ADS-B
Sun 05:26:19 PM 43.5570 -77.5220 73° East 565 650 37,000  Level FlightAware ADS-B
Sun 05:27:02 PM 43.5900 -77.3700 73° East 564 649 37,000  Level FlightAware ADS-B
Sun 05:27:42 PM 43.6190 -77.2310 74° East 561 646 37,000  Level FlightAware ADS-B
Sun 05:28:26 PM 43.6520 -77.0780 73° East 561 646 37,000  Level FlightAware ADS-B
Sun 05:29:08 PM 43.6810 -76.9400 74° East 560 644 37,000  Level FlightAware ADS-B
Sun 05:29:48 PM 43.7110 -76.7960 74° East 561 646 37,000  Level FlightAware ADS-B
Sun 05:29:56 PM 43.7160 -76.7700 75° East 561 646 37,000  Level FlightAware ADS-B
Sun 05:31:06 PM 43.7670 -76.5270 74° East 561 646 37,000  Level FlightAware ADS-B
Sun 05:31:46 PM 43.7940 -76.3920 74° East 560 644 37,000  Level FlightAware ADS-B
Sun 05:32:32 PM 43.8270 -76.2310 74° East 560 644 37,000  Level FlightAware ADS-B
Sun 05:33:14 PM 43.8560 -76.0860 74° East 559 643 37,000  Level FlightAware ADS-B
Sun 05:33:53 PM 43.8820 -75.9550 75° East 558 642 37,000  Level FlightAware ADS-B
Sun 05:34:38 PM 43.9130 -75.7990 75° East 556 640 37,000  Level FlightAware ADS-B
Sun 05:35:18 PM 43.9410 -75.6590 74° East 557 641 37,000  Level FlightAware ADS-B
Sun 05:36:02 PM 43.9700 -75.5120 75° East 556 640 37,000  Level FlightAware ADS-B
Sun 05:36:42 PM 43.9970 -75.3730 75° East 556 640 37,000  Level FlightAware ADS-B
Sun 05:37:22 PM 44.0230 -75.2350 75° East 558 642 37,000  Level FlightAware ADS-B
Sun 05:38:04 PM 44.0510 -75.0910 75° East 559 643 37,000  Level FlightAware ADS-B
Sun 05:38:48 PM 44.0800 -74.9360 75° East 560 644 37,000  Level FlightAware ADS-B
Sun 05:39:28 PM 44.1070 -74.7960 75° East 560 644 37,000  Level FlightAware ADS-B
Sun 05:40:12 PM 44.1350 -74.6460 75° East 559 643 37,000  Level FlightAware ADS-B
Sun 05:40:52 PM 44.1610 -74.5040 76° East 560 644 37,000 -286 Level FlightAware ADS-B
Sun 05:41:36 PM 44.1890 -74.3510 76° East 561 646 36,600 -714 Descending FlightAware ADS-B
Sun 05:42:16 PM 44.2130 -74.2130 76° East 557 641 36,000 -929 Descending FlightAware ADS-B
Sun 05:43:00 PM 44.2090 -74.0580 92° East 538 619 35,300 -977 Descending FlightAware ADS-B
Sun 05:43:42 PM 44.1990 -73.9140 95° East 538 619 34,600 -977 Descending FlightAware ADS-B
Sun 05:44:26 PM 44.1880 -73.7630 96° East 538 619 33,900 -1,000 Descending FlightAware ADS-B
Sun 05:45:06 PM 44.1780 -73.6240 96° East 529 609 33,200 -675 Descending FlightAware ADS-B
Sun 05:45:46 PM 44.1680 -73.4910 96° East 527 606 33,000 -143 Descending FlightAware ADS-B
Sun 05:46:30 PM 44.1570 -73.3410 96° East 530 610 33,000  Level FlightAware ADS-B
Sun 05:47:14 PM 44.1460 -73.1940 96° East 508 585 33,000  Level FlightAware ADS-B
Sun 05:47:54 PM 44.1360 -73.0680 96° East 501 577 33,000  Level FlightAware ADS-B
Sun 05:48:34 PM 44.1260 -72.9400 96° East 503 579 33,000  Level FlightAware ADS-B
Sun 05:49:20 PM 44.1130 -72.7890 97° East 512 589 33,000 68 Level FlightAware ADS-B
Sun 05:50:02 PM 44.1020 -72.6520 96° East 519 597 33,100 75 Climbing FlightAware ADS-B
Sun 05:50:40 PM 44.0890 -72.5300 98° East 514 592 33,100 -370 Level FlightAware ADS-B
Sun 05:51:23 PM 44.0620 -72.3930 105° East 492 566 32,600 -828 Descending FlightAware ADS-B
Sun 05:52:07 PM 44.0230 -72.2690 114° Southeast 478 550 31,900 -929 Descending FlightAware ADS-B
Sun 05:52:47 PM 43.9830 -72.1560 116° Southeast 478 550 31,300 -643 Descending FlightAware ADS-B
Sun 05:53:31 PM 43.9420 -72.0390 116° Southeast 490 564 31,000 -184 Descending FlightAware ADS-B
Sun 05:54:25 PM 43.8870 -71.8850 116° Southeast 482 555 31,000  Level FlightAware ADS-B
Sun 05:55:09 PM 43.8450 -71.7650 116° Southeast 484 557 31,000  Level FlightAware ADS-B
Sun 05:55:49 PM 43.8040 -71.6510 116° Southeast 482 555 31,000  Level FlightAware ADS-B
Sun 05:56:31 PM 43.7620 -71.5340 116° Southeast 481 554 31,000  Level FlightAware ADS-B
Sun 05:57:15 PM 43.7190 -71.4160 117° Southeast 480 552 31,000  Level FlightAware ADS-B
Sun 05:57:53 PM 43.6820 -71.3110 116° Southeast 485 558 31,000  Level FlightAware ADS-B
Sun 05:58:39 PM 43.6340 -71.1810 117° Southeast 488 562 31,000 -140 Level FlightAware ADS-B
Sun 05:59:19 PM 43.5950 -71.0730 116° Southeast 488 562 30,800 -541 Descending FlightAware ADS-B
Sun 06:00:30 PM 43.5410 -70.9240 117° Southeast 479 551 30,000 -950 Descending FlightAware ADS-B
Sun 06:01:19 PM 43.4750 -70.7460 117° Southeast 474 545 28,900 -1,146 Descending FlightAware ADS-B
Sun 06:01:59 PM 43.4330 -70.6430 119° Southeast 454 522 28,300 -929 Descending FlightAware ADS-B
Sun 06:02:43 PM 43.3620 -70.5750 145° Southeast 407 468 27,600 -1,357 Descending FlightAware ADS-B
Sun 06:03:23 PM 43.2920 -70.5340 157° South 405 466 26,400 -2,025 Descending FlightAware ADS-B
Sun 06:04:03 PM 43.2250 -70.4940 156° South 399 459 24,900 -2,286 Descending FlightAware ADS-B
Sun 06:04:47 PM 43.1500 -70.4500 157° South 394 453 23,200 -2,932 Descending FlightAware ADS-B
Sun 06:05:31 PM 43.0760 -70.4060 157° South 409 471 20,600 -2,732 Descending FlightAware ADS-B
Sun 06:06:50 PM 42.9420 -70.3270 157° South 390 449 17,600 -2,370 Descending FlightAware ADS-B
Sun 06:07:30 PM 42.8780 -70.2810 152° Southeast 391 450 15,900 -2,429 Descending FlightAware ADS-B
Sun 06:08:14 PM 42.8130 -70.2250 148° Southeast 367 422 14,200 -2,460 Descending FlightAware ADS-B
Sun 06:09:10 PM 42.7340 -70.2350 185° South 322 371 11,800 -2,317 Descending FlightAware ADS-B
Sun 06:09:55 PM 42.6950 -70.3100 235° Southwest 311 358 10,300 -1,271 Descending FlightAware ADS-B
Sun 06:10:35 PM 42.6630 -70.3760 237° Southwest 318 366 10,000 -667 Descending FlightAware ADS-B
Sun 06:11:34 PM 42.6280 -70.4740 244° Southwest 276 318 9,200 -1,043 Descending FlightAware ADS-B
Sun 06:11:44 PM 42.6230 -70.4920 249° West 275 316 8,800 -2,108 Descending FlightAware ADS-B
Sun 06:12:11 PM 42.6140 -70.5310 253° West 274 315 7,900 -2,400 Descending FlightAware ADS-B
Sun 06:12:29 PM 42.6090 -70.5670 259° West 274 315 7,000 -2,512 Descending FlightAware ADS-B
Sun 06:12:54 PM 42.6020 -70.6060 256° West 270 311 6,100 -2,250 Descending FlightAware ADS-B
Sun 06:13:25 PM 42.5940 -70.6590 258° West 265 305 4,900 -1,821 Descending FlightAware ADS-B
Sun 06:13:50 PM 42.5870 -70.7000 257° West 259 298 4,400 -1,200 Descending FlightAware ADS-B
Sun 06:14:05 PM 42.5830 -70.7230 257° West 255 293 4,100 -533 Descending FlightAware ADS-B
Sun 06:14:35 PM 42.5750 -70.7700 257° West 247 284 4,000 -400 Descending FlightAware ADS-B
Sun 06:14:50 PM 42.5710 -70.7920 256° West 230 265 3,800 -900 Descending FlightAware ADS-B
Sun 06:14:55 PM 42.5700 -70.7980 257° West 226 260 3,700 -1,043 Descending FlightAware ADS-B
Sun 06:15:13 PM 42.5670 -70.8190 259° West 214 246 3,400 -320 Descending FlightAware ADS-B
Sun 06:17:25 PM 42.5160 -70.9320 239° Southwest 172 198 2,900 -477 Descending FlightAware ADS-B
Sun 06:18:09 PM 42.4710 -70.9540 200° South 170 196 2,000 -1,111 Descending FlightAware ADS-B
Sun 06:18:19 PM 42.4630 -70.9580 200° South 170 196 1,900 -792 Descending FlightAware ADS-B
Sun 06:19:02 PM 42.4320 -70.9720 198° South 146 168 1,300 -822 Descending FlightAware ADS-B
Sun 06:19:32 PM 42.4150 -70.9810 201° Southwest 128 147 900 -764 Descending FlightAware ADS-B
Sun 06:19:57 PM 42.4010 -70.9880 200° South 122 140 600 -600 Descending FlightAware ADS-B
Sun 06:20:22 PM 42.3880 -70.9940 199° South 122 140 400 -226 Descending FlightAware ADS-B
Sun 06:20:50 PM 42.3750 -71.0000 199° South 122 140 400 7,852 Level FlightAware ADS-B
Sun 06:21:43 PM 42.3372 -71.0161 199° South 144 166 11,000 12,000 Climbing Boston Center
Sun 06:23:00 PM 42.3500 -71.0000 North  Level FlightAware Approximate

Login

Don't have an account? Register now (free) for customized features, flight alerts, and more!